createdAt,value
2022-08-26T00:00:21.013Z,24.42
2022-08-26T00:02:48.973Z,24.36
2022-08-26T00:05:17.398Z,24.35
2022-08-26T00:07:46.585Z,24.29
2022-08-26T00:10:14.984Z,24.11
2022-08-26T00:12:44.290Z,23.96
2022-08-26T00:15:18.583Z,23.94
2022-08-26T00:17:50.102Z,23.88
2022-08-26T00:20:23.002Z,23.78
2022-08-26T00:22:51.144Z,23.77
2022-08-26T00:25:19.673Z,23.75
2022-08-26T00:27:50.870Z,23.73
2022-08-26T00:30:26.601Z,23.67
2022-08-26T00:32:55.821Z,23.65
2022-08-26T00:35:28.024Z,23.70
2022-08-26T00:37:58.840Z,23.76
2022-08-26T00:40:31.540Z,23.84
2022-08-26T00:43:06.988Z,23.93
2022-08-26T00:45:45.234Z,23.95
2022-08-26T00:48:17.323Z,23.88
2022-08-26T00:50:54.568Z,23.87
2022-08-26T00:53:30.383Z,23.86
2022-08-26T00:56:09.671Z,23.82
2022-08-26T00:58:45.316Z,23.76
2022-08-26T01:01:13.783Z,23.74
2022-08-26T01:03:44.726Z,23.71
2022-08-26T01:06:14.765Z,23.56
2022-08-26T01:08:42.648Z,22.85
2022-08-26T01:11:14.950Z,22.83
2022-08-26T01:13:47.476Z,22.56
2022-08-26T01:16:16.920Z,22.65
2022-08-26T01:18:46.799Z,22.67
2022-08-26T01:21:25.098Z,22.72
2022-08-26T01:23:57.898Z,22.53
2022-08-26T01:26:33.780Z,22.57
2022-08-26T01:29:06.054Z,22.58
2022-08-26T01:31:41.766Z,22.59
2022-08-26T01:34:18.062Z,22.55
2022-08-26T01:36:51.611Z,22.59
2022-08-26T01:39:23.029Z,22.59
2022-08-26T01:41:56.892Z,22.60
2022-08-26T01:44:30.492Z,22.64
2022-08-26T01:47:02.002Z,22.68
2022-08-26T01:49:36.592Z,22.72
2022-08-26T01:52:07.563Z,22.77
2022-08-26T01:54:40.408Z,22.81
2022-08-26T01:57:09.078Z,22.84
2022-08-26T01:59:38.040Z,22.87
2022-08-26T02:02:07.124Z,22.95
2022-08-26T02:04:44.211Z,22.98
2022-08-26T02:07:12.694Z,23.06
2022-08-26T02:09:42.820Z,23.16
2022-08-26T02:12:15.169Z,23.05
2022-08-26T02:14:50.164Z,23.03
2022-08-26T02:17:26.133Z,23.02
2022-08-26T02:19:54.486Z,23.04
2022-08-26T02:22:24.857Z,22.93
2022-08-26T02:24:58.209Z,22.67
2022-08-26T02:27:32.352Z,22.48
2022-08-26T02:30:09.629Z,22.27
2022-08-26T02:32:40.154Z,22.32
2022-08-26T02:35:10.904Z,22.23
2022-08-26T02:37:39.108Z,22.18
2022-08-26T02:40:15.254Z,22.05
2022-08-26T02:42:43.472Z,21.94
2022-08-26T02:45:13.366Z,21.93
2022-08-26T02:47:45.230Z,22.00
2022-08-26T02:50:14.808Z,21.87
2022-08-26T02:52:45.613Z,21.80
2022-08-26T02:55:15.790Z,21.70
2022-08-26T02:57:44.033Z,21.82
2022-08-26T03:00:15.338Z,21.69
2022-08-26T03:02:43.661Z,21.58
2022-08-26T03:05:13.054Z,21.54
2022-08-26T03:07:40.912Z,21.51
2022-08-26T03:10:12.502Z,21.59
2022-08-26T03:12:42.960Z,21.55
2022-08-26T03:15:18.642Z,21.52
2022-08-26T03:17:49.034Z,21.50
2022-08-26T03:20:18.795Z,21.48
2022-08-26T03:22:47.158Z,21.41
2022-08-26T03:25:17.507Z,21.49
2022-08-26T03:27:46.742Z,21.41
2022-08-26T03:30:34.907Z,21.29
2022-08-26T03:33:04.037Z,21.26
2022-08-26T03:35:32.784Z,21.14
2022-08-26T03:38:02.016Z,21.09
2022-08-26T03:40:30.301Z,21.09
2022-08-26T03:42:59.881Z,21.08
2022-08-26T03:45:27.939Z,21.12
2022-08-26T03:47:56.219Z,20.98
2022-08-26T03:50:27.068Z,20.91
2022-08-26T03:52:59.412Z,20.82
2022-08-26T03:55:33.010Z,20.80
2022-08-26T03:58:02.641Z,20.66
2022-08-26T04:00:30.747Z,20.70
2022-08-26T04:02:58.796Z,20.74
2022-08-26T04:05:26.935Z,20.67
2022-08-26T04:07:56.171Z,20.75
2022-08-26T04:10:28.552Z,20.82
2022-08-26T04:12:58.728Z,20.81
2022-08-26T04:15:28.806Z,20.69
2022-08-26T04:17:57.377Z,20.59
2022-08-26T04:20:26.942Z,20.66
2022-08-26T04:22:54.806Z,20.74
2022-08-26T04:25:24.273Z,20.51
2022-08-26T04:27:52.387Z,20.36
2022-08-26T04:30:21.205Z,20.49
2022-08-26T04:32:50.536Z,20.45
2022-08-26T04:35:25.601Z,20.51
2022-08-26T04:37:54.486Z,20.53
2022-08-26T04:40:23.270Z,20.39
2022-08-26T04:42:52.445Z,20.38
2022-08-26T04:45:22.759Z,20.40
2022-08-26T04:47:56.212Z,20.40
2022-08-26T04:50:25.749Z,20.42
2022-08-26T04:52:55.410Z,20.46
2022-08-26T04:55:38.675Z,20.31
2022-08-26T04:58:10.891Z,20.41
2022-08-26T05:00:38.831Z,20.28
2022-08-26T05:03:10.383Z,20.38
2022-08-26T05:05:41.168Z,20.36
2022-08-26T05:08:11.185Z,20.53
2022-08-26T05:10:41.101Z,20.49
2022-08-26T05:13:11.168Z,20.51
2022-08-26T05:15:40.121Z,20.51
2022-08-26T05:18:10.701Z,20.41
2022-08-26T05:20:41.776Z,20.60
2022-08-26T05:23:09.869Z,20.58
2022-08-26T05:25:40.391Z,20.78
2022-08-26T05:28:09.044Z,20.79
2022-08-26T05:30:38.221Z,20.98
2022-08-26T05:33:08.176Z,20.94
2022-08-26T05:35:39.010Z,20.91
2022-08-26T05:38:12.819Z,21.26
2022-08-26T05:40:44.721Z,21.18
2022-08-26T05:43:13.937Z,21.25
2022-08-26T05:45:46.151Z,21.29
2022-08-26T05:48:16.107Z,21.45
2022-08-26T05:50:47.986Z,21.48
2022-08-26T05:53:20.622Z,21.31
2022-08-26T05:55:51.983Z,21.46
2022-08-26T05:58:22.019Z,21.35
2022-08-26T06:00:59.141Z,21.44
2022-08-26T06:03:28.361Z,21.42
2022-08-26T06:05:57.944Z,21.24
2022-08-26T06:08:25.892Z,21.53
2022-08-26T06:10:59.445Z,21.68
2022-08-26T06:13:31.918Z,21.60
2022-08-26T06:16:05.135Z,21.58
2022-08-26T06:18:37.607Z,21.60
2022-08-26T06:21:16.675Z,21.93
2022-08-26T06:24:06.587Z,22.22
2022-08-26T06:26:37.037Z,22.19
2022-08-26T06:29:06.994Z,22.14
2022-08-26T06:31:37.258Z,22.29
2022-08-26T06:34:10.727Z,22.12
2022-08-26T06:36:43.935Z,22.18
2022-08-26T06:39:16.533Z,22.06
2022-08-26T06:41:46.298Z,22.42
2022-08-26T06:44:19.474Z,22.60
2022-08-26T06:46:50.267Z,22.81
2022-08-26T06:49:26.560Z,22.87
2022-08-26T06:51:59.592Z,22.80
2022-08-26T06:54:31.421Z,22.79
2022-08-26T06:56:59.686Z,22.82
2022-08-26T06:59:28.289Z,22.62
2022-08-26T07:01:56.151Z,22.67
2022-08-26T07:04:24.966Z,22.87
2022-08-26T07:06:57.588Z,23.14
2022-08-26T07:09:29.242Z,23.35
2022-08-26T07:11:57.214Z,23.31
2022-08-26T07:14:26.261Z,23.18
2022-08-26T07:16:55.158Z,22.99
2022-08-26T07:19:30.592Z,23.36
2022-08-26T07:22:05.067Z,23.50
2022-08-26T07:24:36.822Z,23.28
2022-08-26T07:27:08.960Z,23.31
2022-08-26T07:29:39.498Z,23.03
2022-08-26T07:32:08.440Z,23.29
2022-08-26T07:34:38.355Z,23.44
2022-08-26T07:37:08.869Z,23.31
2022-08-26T07:39:38.113Z,23.41
2022-08-26T07:42:10.631Z,23.49
2022-08-26T07:44:40.546Z,23.70
2022-08-26T07:47:24.556Z,23.59
2022-08-26T07:49:55.993Z,23.43
2022-08-26T07:52:29.021Z,23.46
2022-08-26T07:54:59.662Z,23.63
2022-08-26T07:57:29.512Z,23.80
2022-08-26T08:00:01.391Z,23.74
2022-08-26T08:02:29.863Z,23.90
2022-08-26T08:04:58.309Z,23.87
2022-08-26T08:07:45.136Z,23.99
2022-08-26T08:10:18.214Z,24.17
2022-08-26T08:12:48.483Z,24.00
2022-08-26T08:15:20.115Z,24.11
2022-08-26T08:17:50.460Z,23.78
2022-08-26T08:20:21.430Z,23.63
2022-08-26T08:22:53.121Z,23.75
2022-08-26T08:25:24.609Z,23.87
2022-08-26T08:27:53.899Z,23.97
2022-08-26T08:30:24.444Z,23.71
2022-08-26T08:32:53.462Z,23.86
2022-08-26T08:35:27.640Z,24.10
2022-08-26T08:37:59.114Z,24.10
2022-08-26T08:40:28.092Z,24.07
2022-08-26T08:43:04.226Z,24.22
2022-08-26T08:45:39.374Z,24.42
2022-08-26T08:48:20.305Z,24.20
2022-08-26T08:50:57.062Z,24.17
2022-08-26T08:53:35.277Z,24.13
2022-08-26T08:56:17.011Z,23.98
2022-08-26T08:58:56.840Z,24.08
2022-08-26T09:01:54.204Z,23.99
2022-08-26T09:04:56.088Z,23.97
2022-08-26T09:07:36.577Z,24.19
2022-08-26T09:10:30.607Z,24.26
2022-08-26T09:13:02.585Z,24.05
2022-08-26T09:15:45.401Z,24.22
2022-08-26T09:18:36.850Z,24.32
2022-08-26T09:21:11.700Z,24.49
2022-08-26T09:23:42.879Z,24.55
2022-08-26T09:26:19.871Z,24.74
2022-08-26T09:28:56.263Z,24.73
2022-08-26T09:31:29.308Z,24.69
2022-08-26T09:34:17.269Z,24.61
2022-08-26T09:36:49.619Z,24.94
2022-08-26T09:39:33.427Z,24.77
2022-08-26T09:42:11.230Z,24.77
2022-08-26T09:44:56.510Z,24.98
2022-08-26T09:47:30.237Z,24.76
2022-08-26T09:50:09.539Z,25.00
2022-08-26T09:52:42.902Z,24.92
2022-08-26T09:55:21.033Z,24.92
2022-08-26T09:57:54.164Z,24.99
2022-08-26T10:00:31.167Z,25.04
2022-08-26T10:03:02.615Z,24.87
2022-08-26T10:05:42.420Z,25.10
2022-08-26T10:08:26.128Z,25.33
2022-08-26T10:10:57.117Z,25.66
2022-08-26T10:13:35.648Z,25.54
2022-08-26T10:16:17.786Z,25.28
2022-08-26T10:19:00.046Z,25.40
2022-08-26T10:21:37.036Z,25.79
2022-08-26T10:24:09.048Z,25.57
2022-08-26T10:26:50.618Z,25.62
2022-08-26T10:29:29.605Z,25.37
2022-08-26T10:32:03.532Z,25.58
2022-08-26T10:34:32.301Z,25.78
2022-08-26T10:37:15.066Z,25.73
2022-08-26T10:39:57.014Z,26.00
2022-08-26T10:42:35.295Z,26.07
2022-08-26T10:45:11.098Z,26.01
2022-08-26T10:47:50.116Z,26.23
2022-08-26T10:50:22.942Z,26.36
2022-08-26T10:53:02.281Z,26.37
2022-08-26T10:55:40.393Z,26.10
2022-08-26T10:58:36.744Z,26.38
2022-08-26T11:01:51.018Z,26.62
2022-08-26T11:04:48.484Z,26.70
2022-08-26T11:07:36.757Z,26.49
2022-08-26T11:10:31.982Z,26.42
2022-08-26T11:13:03.462Z,26.57
2022-08-26T11:16:09.393Z,26.09
2022-08-26T11:18:45.837Z,26.31
2022-08-26T11:22:11.738Z,26.71
2022-08-26T11:25:01.491Z,26.61
2022-08-26T11:27:57.852Z,26.88
2022-08-26T11:30:49.085Z,27.29
2022-08-26T11:33:57.925Z,27.44
2022-08-26T11:36:57.445Z,27.57
2022-08-26T11:39:36.517Z,28.02
2022-08-26T11:42:27.722Z,27.71
2022-08-26T11:44:58.208Z,27.86
2022-08-26T11:47:31.431Z,28.09
2022-08-26T11:50:16.731Z,28.14
2022-08-26T11:52:53.549Z,27.71
2022-08-26T11:55:23.341Z,27.83
2022-08-26T11:57:57.571Z,27.80
2022-08-26T12:00:33.578Z,27.85
2022-08-26T12:03:08.547Z,28.24
2022-08-26T12:05:45.978Z,28.67
2022-08-26T12:08:21.541Z,28.98
2022-08-26T12:10:49.760Z,28.93
2022-08-26T12:13:25.036Z,29.11
2022-08-26T12:15:57.764Z,28.82
2022-08-26T12:18:31.302Z,29.11
2022-08-26T12:21:12.298Z,29.38
2022-08-26T12:23:44.899Z,29.36
2022-08-26T12:26:24.429Z,29.35
2022-08-26T12:28:59.484Z,29.40
2022-08-26T12:31:32.779Z,29.49
2022-08-26T12:34:04.888Z,29.32
2022-08-26T12:36:43.141Z,29.28
2022-08-26T12:39:16.638Z,29.24
2022-08-26T12:41:49.613Z,29.06
2022-08-26T12:44:53.454Z,29.00
2022-08-26T12:47:30.988Z,28.91
2022-08-26T12:50:18.950Z,28.50
2022-08-26T12:53:00.860Z,28.45
2022-08-26T12:55:44.842Z,28.11
2022-08-26T12:58:23.960Z,28.06
2022-08-26T13:00:54.654Z,27.88
2022-08-26T13:03:43.940Z,28.13
2022-08-26T13:06:31.286Z,27.94
2022-08-26T13:09:06.057Z,27.67
2022-08-26T13:12:02.152Z,27.75
2022-08-26T13:14:31.110Z,27.82
2022-08-26T13:16:59.259Z,27.71
2022-08-26T13:19:27.154Z,27.46
2022-08-26T13:21:58.436Z,27.60
2022-08-26T13:24:32.930Z,27.81
2022-08-26T13:27:05.491Z,27.55
2022-08-26T13:29:34.869Z,27.77
2022-08-26T13:32:06.497Z,27.71
2022-08-26T13:34:37.407Z,27.63
2022-08-26T13:37:06.724Z,27.58
2022-08-26T13:39:35.140Z,27.88
2022-08-26T13:42:05.334Z,27.58
2022-08-26T13:44:33.469Z,27.44
2022-08-26T13:47:01.349Z,27.17
2022-08-26T13:49:45.493Z,27.14
2022-08-26T13:52:13.757Z,27.19
2022-08-26T13:54:41.747Z,27.28
2022-08-26T13:57:11.567Z,26.91
2022-08-26T13:59:42.302Z,26.95
2022-08-26T14:02:13.286Z,27.04
2022-08-26T14:04:41.622Z,27.03
2022-08-26T14:07:12.191Z,26.89
2022-08-26T14:09:40.291Z,27.00
2022-08-26T14:12:10.042Z,26.86
2022-08-26T14:14:38.181Z,27.15
2022-08-26T14:17:07.104Z,26.99
2022-08-26T14:19:35.288Z,26.74
2022-08-26T14:22:04.583Z,26.56
2022-08-26T14:24:32.456Z,26.36
2022-08-26T14:27:00.406Z,26.61
2022-08-26T14:29:29.666Z,26.43
2022-08-26T14:32:00.809Z,26.65
2022-08-26T14:34:29.016Z,26.77
2022-08-26T14:36:56.825Z,26.69
2022-08-26T14:39:24.828Z,26.58
2022-08-26T14:41:56.544Z,26.73
2022-08-26T14:44:31.218Z,26.70
2022-08-26T14:47:02.201Z,26.66
2022-08-26T14:49:31.449Z,26.50
2022-08-26T14:51:59.561Z,26.43
2022-08-26T14:54:29.336Z,26.58
2022-08-26T14:57:01.800Z,26.82
2022-08-26T14:59:34.475Z,26.90
2022-08-26T15:02:07.362Z,26.90
2022-08-26T15:04:35.413Z,26.79
2022-08-26T15:07:04.895Z,26.83
2022-08-26T15:09:37.308Z,26.54
2022-08-26T15:12:12.841Z,26.55
2022-08-26T15:14:42.086Z,26.46
2022-08-26T15:17:10.071Z,26.56
2022-08-26T15:19:38.916Z,26.31
2022-08-26T15:22:07.038Z,26.53
2022-08-26T15:24:35.086Z,26.47
2022-08-26T15:27:03.582Z,26.23
2022-08-26T15:29:31.627Z,26.16
2022-08-26T15:32:07.228Z,25.80
2022-08-26T15:34:36.531Z,25.43
2022-08-26T15:37:06.359Z,25.58
2022-08-26T15:39:35.069Z,25.53
2022-08-26T15:42:03.984Z,25.50
2022-08-26T15:44:33.978Z,25.58
2022-08-26T15:47:02.980Z,25.67
2022-08-26T15:49:32.862Z,25.25
2022-08-26T15:52:03.452Z,25.44
2022-08-26T15:54:33.393Z,25.44
2022-08-26T15:57:04.075Z,25.13
2022-08-26T15:59:33.288Z,25.39
2022-08-26T16:02:02.149Z,25.44
2022-08-26T16:04:32.821Z,25.64
2022-08-26T16:07:01.307Z,25.74
2022-08-26T16:09:31.777Z,25.72
2022-08-26T16:12:00.923Z,25.68
2022-08-26T16:14:31.050Z,25.42
2022-08-26T16:16:59.044Z,25.27
2022-08-26T16:19:27.582Z,25.54
2022-08-26T16:21:56.903Z,25.46
2022-08-26T16:24:30.358Z,25.28
2022-08-26T16:26:58.729Z,25.28
2022-08-26T16:29:27.484Z,25.32
2022-08-26T16:31:55.383Z,25.22
2022-08-26T16:34:24.899Z,25.31
2022-08-26T16:36:53.252Z,25.28
2022-08-26T16:39:22.874Z,25.06
2022-08-26T16:41:50.826Z,25.17
2022-08-26T16:44:19.100Z,25.03
2022-08-26T16:46:47.180Z,25.11
2022-08-26T16:49:15.504Z,25.15
2022-08-26T16:51:43.789Z,25.01
2022-08-26T16:54:11.666Z,24.53
2022-08-26T16:56:40.891Z,24.72
2022-08-26T16:59:11.466Z,24.68
2022-08-26T17:01:39.445Z,24.61
2022-08-26T17:04:07.726Z,24.62
2022-08-26T17:06:35.977Z,24.73
2022-08-26T17:09:04.182Z,24.69
2022-08-26T17:11:32.052Z,24.69
2022-08-26T17:14:01.464Z,24.75
2022-08-26T17:16:31.970Z,24.89
2022-08-26T17:19:00.752Z,24.89
2022-08-26T17:21:29.944Z,24.73
2022-08-26T17:23:57.982Z,24.70
2022-08-26T17:26:27.031Z,24.74
2022-08-26T17:28:55.684Z,24.58
2022-08-26T17:31:25.250Z,24.66
2022-08-26T17:33:55.373Z,24.81
2022-08-26T17:36:27.608Z,24.74
2022-08-26T17:38:57.946Z,24.57
2022-08-26T17:41:27.344Z,24.63
2022-08-26T17:43:55.589Z,24.41
2022-08-26T17:46:25.455Z,24.25
2022-08-26T17:48:53.484Z,24.23
2022-08-26T17:51:23.184Z,24.20
2022-08-26T17:53:52.506Z,23.81
2022-08-26T17:56:25.987Z,23.77
2022-08-26T17:58:56.968Z,23.90
2022-08-26T18:01:28.500Z,23.99
2022-08-26T18:04:00.274Z,24.04
2022-08-26T18:06:30.606Z,24.04
2022-08-26T18:09:00.246Z,24.04
2022-08-26T18:11:31.095Z,23.98
2022-08-26T18:13:59.845Z,23.72
2022-08-26T18:16:38.166Z,23.75
2022-08-26T18:19:06.706Z,23.79
2022-08-26T18:21:36.188Z,23.64
2022-08-26T18:24:05.104Z,23.60
2022-08-26T18:26:36.960Z,23.65
2022-08-26T18:29:08.118Z,23.63
2022-08-26T18:31:38.590Z,23.52
2022-08-26T18:34:06.933Z,23.64
2022-08-26T18:36:37.144Z,23.68
2022-08-26T18:39:07.887Z,23.61
2022-08-26T18:41:43.030Z,23.51
2022-08-26T18:44:13.975Z,23.49
2022-08-26T18:46:45.872Z,23.37
2022-08-26T18:49:16.542Z,23.33
2022-08-26T18:51:47.779Z,23.23
2022-08-26T18:54:15.939Z,23.12
2022-08-26T18:56:46.199Z,23.14
2022-08-26T18:59:14.469Z,22.97
2022-08-26T19:01:43.908Z,22.90
2022-08-26T19:04:15.528Z,23.02
2022-08-26T19:06:47.462Z,23.05
2022-08-26T19:09:18.010Z,22.81
2022-08-26T19:11:46.516Z,22.61
2022-08-26T19:14:18.641Z,22.50
2022-08-26T19:16:52.243Z,22.46
2022-08-26T19:19:24.037Z,22.59
2022-08-26T19:21:52.559Z,22.56
2022-08-26T19:24:21.536Z,22.52
2022-08-26T19:26:57.624Z,22.46
2022-08-26T19:29:31.429Z,22.18
2022-08-26T19:32:02.071Z,22.22
2022-08-26T19:34:30.643Z,22.40
2022-08-26T19:36:58.907Z,22.13
2022-08-26T19:39:28.504Z,22.08
2022-08-26T19:41:56.691Z,22.14
2022-08-26T19:44:43.458Z,22.15
2022-08-26T19:47:16.395Z,22.27
2022-08-26T19:49:44.730Z,22.21
2022-08-26T19:52:12.722Z,22.28
2022-08-26T19:54:42.267Z,22.33
2022-08-26T19:57:11.068Z,22.33
2022-08-26T19:59:40.182Z,22.40
2022-08-26T20:02:11.010Z,22.34
2022-08-26T20:04:41.800Z,22.27
2022-08-26T20:07:13.067Z,22.21
2022-08-26T20:09:48.013Z,22.08
2022-08-26T20:12:18.671Z,22.11
2022-08-26T20:14:48.182Z,22.16
2022-08-26T20:17:17.075Z,22.00
2022-08-26T20:20:05.046Z,22.02
2022-08-26T20:22:33.640Z,21.84
2022-08-26T20:25:01.559Z,21.84
2022-08-26T20:27:37.836Z,21.74
2022-08-26T20:30:10.069Z,21.68
2022-08-26T20:32:39.357Z,21.79
2022-08-26T20:35:13.462Z,21.75
2022-08-26T20:37:42.279Z,21.61
2022-08-26T20:40:14.393Z,21.49
2022-08-26T20:42:42.503Z,21.46
2022-08-26T20:45:11.778Z,21.46
2022-08-26T20:47:39.833Z,21.51
2022-08-26T20:50:10.075Z,21.54
2022-08-26T20:52:37.942Z,21.49
2022-08-26T20:55:07.114Z,21.29
2022-08-26T20:57:35.034Z,21.18
2022-08-26T21:00:04.914Z,21.13
2022-08-26T21:02:33.900Z,21.01
2022-08-26T21:05:01.883Z,20.91
2022-08-26T21:07:31.252Z,20.84
2022-08-26T21:09:59.192Z,20.82
2022-08-26T21:12:27.351Z,20.85
2022-08-26T21:14:55.388Z,20.82
2022-08-26T21:17:23.237Z,20.60
2022-08-26T21:19:51.500Z,20.53
2022-08-26T21:22:19.811Z,20.47
2022-08-26T21:24:49.372Z,20.52
2022-08-26T21:27:21.290Z,20.52
2022-08-26T21:29:54.794Z,20.56
2022-08-26T21:32:23.904Z,20.51
2022-08-26T21:34:55.698Z,20.42
2022-08-26T21:37:24.845Z,20.40
2022-08-26T21:39:57.071Z,20.29
2022-08-26T21:42:26.529Z,20.25
2022-08-26T21:44:54.594Z,20.13
2022-08-26T21:47:23.289Z,20.07
2022-08-26T21:49:51.582Z,20.12
2022-08-26T21:52:20.063Z,20.11
2022-08-26T21:54:49.374Z,20.16
2022-08-26T21:57:19.168Z,20.15
2022-08-26T21:59:48.027Z,20.00
2022-08-26T22:02:16.175Z,20.06
2022-08-26T22:04:48.591Z,20.14
2022-08-26T22:07:17.980Z,20.23
2022-08-26T22:09:46.758Z,20.18
2022-08-26T22:12:18.214Z,20.03
2022-08-26T22:14:48.477Z,19.94
2022-08-26T22:17:16.864Z,19.99
2022-08-26T22:19:46.273Z,19.92
2022-08-26T22:22:15.573Z,19.85
2022-08-26T22:24:43.650Z,19.74
2022-08-26T22:27:13.578Z,19.69
2022-08-26T22:29:41.725Z,19.69
2022-08-26T22:32:11.082Z,19.57
2022-08-26T22:34:41.835Z,19.51
2022-08-26T22:37:09.845Z,19.59
2022-08-26T22:39:38.006Z,19.61
2022-08-26T22:42:06.284Z,19.68
2022-08-26T22:44:36.533Z,19.77
2022-08-26T22:47:05.489Z,19.76
2022-08-26T22:49:34.737Z,19.75
2022-08-26T22:52:03.462Z,19.80
2022-08-26T22:54:31.835Z,19.65
2022-08-26T22:56:59.680Z,19.65
2022-08-26T22:59:28.500Z,19.64
2022-08-26T23:01:56.469Z,19.49
2022-08-26T23:04:24.560Z,19.52
2022-08-26T23:06:53.833Z,19.70
2022-08-26T23:09:22.282Z,19.64
2022-08-26T23:11:50.199Z,19.58
2022-08-26T23:14:19.146Z,19.73
2022-08-26T23:16:47.941Z,19.79
2022-08-26T23:19:20.384Z,19.67
2022-08-26T23:21:49.938Z,19.82
2022-08-26T23:24:20.877Z,19.83
2022-08-26T23:26:49.123Z,19.87
2022-08-26T23:29:17.218Z,19.84
2022-08-26T23:31:45.230Z,19.86
2022-08-26T23:34:32.812Z,19.74
2022-08-26T23:37:01.678Z,19.83
2022-08-26T23:39:33.276Z,19.87
2022-08-26T23:42:02.175Z,19.91
2022-08-26T23:44:32.019Z,19.84
2022-08-26T23:47:00.864Z,19.88
2022-08-26T23:49:29.302Z,19.92
2022-08-26T23:52:15.991Z,19.93
2022-08-26T23:54:47.766Z,19.89
2022-08-26T23:57:17.847Z,19.86
2022-08-26T23:59:48.518Z,19.84
